sensor_id;sensor_type;location;lat;lon;timestamp;temperature;humidity
22827;DHT22;11580;52.562;13.418;2023-07-28T00:01:16;21.50;45.00
22827;DHT22;11580;52.562;13.418;2023-07-28T00:03:43;21.50;44.70
22827;DHT22;11580;52.562;13.418;2023-07-28T00:06:10;21.40;44.80
22827;DHT22;11580;52.562;13.418;2023-07-28T00:08:38;21.40;44.90
22827;DHT22;11580;52.562;13.418;2023-07-28T00:11:09;21.40;45.10
22827;DHT22;11580;52.562;13.418;2023-07-28T00:13:37;21.40;46.00
22827;DHT22;11580;52.562;13.418;2023-07-28T00:16:06;21.40;45.30
22827;DHT22;11580;52.562;13.418;2023-07-28T00:18:34;21.40;45.80
22827;DHT22;11580;52.562;13.418;2023-07-28T00:21:02;21.40;45.60
22827;DHT22;11580;52.562;13.418;2023-07-28T00:23:31;21.40;45.70
22827;DHT22;11580;52.562;13.418;2023-07-28T00:25:58;21.40;46.50
22827;DHT22;11580;52.562;13.418;2023-07-28T00:28:25;21.40;46.50
22827;DHT22;11580;52.562;13.418;2023-07-28T00:30:52;21.40;45.90
22827;DHT22;11580;52.562;13.418;2023-07-28T00:33:21;21.40;46.00
22827;DHT22;11580;52.562;13.418;2023-07-28T00:35:49;21.50;46.40
22827;DHT22;11580;52.562;13.418;2023-07-28T00:38:16;21.50;46.20
22827;DHT22;11580;52.562;13.418;2023-07-28T00:40:43;21.50;46.10
22827;DHT22;11580;52.562;13.418;2023-07-28T00:43:12;21.50;46.80
22827;DHT22;11580;52.562;13.418;2023-07-28T00:45:39;21.50;46.10
22827;DHT22;11580;52.562;13.418;2023-07-28T00:48:12;21.50;46.20
22827;DHT22;11580;52.562;13.418;2023-07-28T00:50:42;21.50;47.40
22827;DHT22;11580;52.562;13.418;2023-07-28T00:53:12;21.50;47.10
22827;DHT22;11580;52.562;13.418;2023-07-28T00:55:39;21.50;46.10
22827;DHT22;11580;52.562;13.418;2023-07-28T00:58:08;21.50;46.80
22827;DHT22;11580;52.562;13.418;2023-07-28T01:00:36;21.50;46.00
22827;DHT22;11580;52.562;13.418;2023-07-28T01:03:03;21.50;45.90
22827;DHT22;11580;52.562;13.418;2023-07-28T01:05:36;21.60;46.10
22827;DHT22;11580;52.562;13.418;2023-07-28T01:08:16;21.60;46.30
22827;DHT22;11580;52.562;13.418;2023-07-28T01:10:48;21.60;46.40
22827;DHT22;11580;52.562;13.418;2023-07-28T01:13:16;21.60;45.90
22827;DHT22;11580;52.562;13.418;2023-07-28T01:15:43;21.60;45.80
22827;DHT22;11580;52.562;13.418;2023-07-28T01:18:10;21.60;45.80
22827;DHT22;11580;52.562;13.418;2023-07-28T01:20:40;21.60;45.70
22827;DHT22;11580;52.562;13.418;2023-07-28T01:23:16;21.70;46.70
22827;DHT22;11580;52.562;13.418;2023-07-28T01:26:00;21.70;46.20
22827;DHT22;11580;52.562;13.418;2023-07-28T01:28:34;21.70;46.40
22827;DHT22;11580;52.562;13.418;2023-07-28T01:31:03;21.70;45.90
22827;DHT22;11580;52.562;13.418;2023-07-28T01:33:31;21.70;45.70
22827;DHT22;11580;52.562;13.418;2023-07-28T01:35:58;21.70;45.60
22827;DHT22;11580;52.562;13.418;2023-07-28T01:38:27;21.80;45.70
22827;DHT22;11580;52.562;13.418;2023-07-28T01:40:54;21.80;45.70
22827;DHT22;11580;52.562;13.418;2023-07-28T01:43:22;21.80;45.70
22827;DHT22;11580;52.562;13.418;2023-07-28T01:45:50;21.80;45.70
22827;DHT22;11580;52.562;13.418;2023-07-28T01:48:17;21.80;45.90
22827;DHT22;11580;52.562;13.418;2023-07-28T01:50:44;21.80;45.70
22827;DHT22;11580;52.562;13.418;2023-07-28T01:53:12;21.80;45.70
22827;DHT22;11580;52.562;13.418;2023-07-28T01:55:39;21.80;45.70
22827;DHT22;11580;52.562;13.418;2023-07-28T01:58:06;21.80;45.80
22827;DHT22;11580;52.562;13.418;2023-07-28T02:00:33;21.80;45.80
22827;DHT22;11580;52.562;13.418;2023-07-28T02:03:02;21.80;45.80
22827;DHT22;11580;52.562;13.418;2023-07-28T02:05:30;21.80;45.90
22827;DHT22;11580;52.562;13.418;2023-07-28T02:07:57;21.80;45.80
22827;DHT22;11580;52.562;13.418;2023-07-28T02:10:26;21.80;45.80
22827;DHT22;11580;52.562;13.418;2023-07-28T02:12:54;21.80;45.80
22827;DHT22;11580;52.562;13.418;2023-07-28T02:15:21;21.90;45.80
22827;DHT22;11580;52.562;13.418;2023-07-28T02:17:49;21.90;45.90
22827;DHT22;11580;52.562;13.418;2023-07-28T02:20:18;21.90;45.90
22827;DHT22;11580;52.562;13.418;2023-07-28T02:22:45;21.90;46.00
22827;DHT22;11580;52.562;13.418;2023-07-28T02:25:12;21.90;45.80
22827;DHT22;11580;52.562;13.418;2023-07-28T02:27:39;21.90;45.70
22827;DHT22;11580;52.562;13.418;2023-07-28T02:30:07;22.00;45.80
22827;DHT22;11580;52.562;13.418;2023-07-28T02:32:36;22.00;45.80
22827;DHT22;11580;52.562;13.418;2023-07-28T02:35:04;22.00;45.80
22827;DHT22;11580;52.562;13.418;2023-07-28T02:37:33;22.00;45.70
22827;DHT22;11580;52.562;13.418;2023-07-28T02:40:01;22.00;45.80
22827;DHT22;11580;52.562;13.418;2023-07-28T02:42:30;22.00;45.60
22827;DHT22;11580;52.562;13.418;2023-07-28T02:44:59;22.00;46.30
22827;DHT22;11580;52.562;13.418;2023-07-28T02:47:26;22.10;46.30
22827;DHT22;11580;52.562;13.418;2023-07-28T02:49:53;22.00;46.30
22827;DHT22;11580;52.562;13.418;2023-07-28T02:52:21;22.10;46.30
22827;DHT22;11580;52.562;13.418;2023-07-28T02:54:49;22.10;45.60
22827;DHT22;11580;52.562;13.418;2023-07-28T02:57:16;22.10;45.70
22827;DHT22;11580;52.562;13.418;2023-07-28T02:59:45;22.10;45.60
22827;DHT22;11580;52.562;13.418;2023-07-28T03:02:13;22.10;45.50
22827;DHT22;11580;52.562;13.418;2023-07-28T03:04:41;22.10;45.50
22827;DHT22;11580;52.562;13.418;2023-07-28T03:07:23;22.10;45.50
22827;DHT22;11580;52.562;13.418;2023-07-28T03:09:58;22.20;45.60
22827;DHT22;11580;52.562;13.418;2023-07-28T03:12:26;22.10;45.50
22827;DHT22;11580;52.562;13.418;2023-07-28T03:14:54;22.20;45.50
22827;DHT22;11580;52.562;13.418;2023-07-28T03:17:21;22.20;45.50
22827;DHT22;11580;52.562;13.418;2023-07-28T03:19:48;22.20;45.40
22827;DHT22;11580;52.562;13.418;2023-07-28T03:22:15;22.20;45.40
22827;DHT22;11580;52.562;13.418;2023-07-28T03:24:42;22.20;45.30
22827;DHT22;11580;52.562;13.418;2023-07-28T03:27:13;22.20;45.40
22827;DHT22;11580;52.562;13.418;2023-07-28T03:29:40;22.20;45.40
22827;DHT22;11580;52.562;13.418;2023-07-28T03:32:07;22.20;45.30
22827;DHT22;11580;52.562;13.418;2023-07-28T03:34:34;22.20;45.30
22827;DHT22;11580;52.562;13.418;2023-07-28T03:37:04;22.20;45.20
22827;DHT22;11580;52.562;13.418;2023-07-28T03:39:32;22.20;45.20
22827;DHT22;11580;52.562;13.418;2023-07-28T03:41:59;22.20;45.20
22827;DHT22;11580;52.562;13.418;2023-07-28T03:44:29;22.20;45.10
22827;DHT22;11580;52.562;13.418;2023-07-28T03:46:56;22.20;45.30
22827;DHT22;11580;52.562;13.418;2023-07-28T03:49:24;22.20;45.10
22827;DHT22;11580;52.562;13.418;2023-07-28T03:51:52;22.20;45.20
22827;DHT22;11580;52.562;13.418;2023-07-28T03:54:19;22.20;45.20
22827;DHT22;11580;52.562;13.418;2023-07-28T03:56:46;22.20;45.20
22827;DHT22;11580;52.562;13.418;2023-07-28T03:59:13;22.20;45.20
22827;DHT22;11580;52.562;13.418;2023-07-28T04:01:42;22.20;45.20
22827;DHT22;11580;52.562;13.418;2023-07-28T04:04:09;22.20;46.00
22827;DHT22;11580;52.562;13.418;2023-07-28T04:06:40;22.20;45.30
22827;DHT22;11580;52.562;13.418;2023-07-28T04:09:08;22.20;45.60
22827;DHT22;11580;52.562;13.418;2023-07-28T04:11:36;22.20;45.30
22827;DHT22;11580;52.562;13.418;2023-07-28T04:14:03;22.20;45.30
22827;DHT22;11580;52.562;13.418;2023-07-28T04:16:31;22.30;45.30
22827;DHT22;11580;52.562;13.418;2023-07-28T04:19:00;22.30;45.40
22827;DHT22;11580;52.562;13.418;2023-07-28T04:21:27;22.30;45.50
22827;DHT22;11580;52.562;13.418;2023-07-28T04:23:54;22.30;45.30
22827;DHT22;11580;52.562;13.418;2023-07-28T04:26:23;22.40;45.40
22827;DHT22;11580;52.562;13.418;2023-07-28T04:28:58;22.40;45.40
22827;DHT22;11580;52.562;13.418;2023-07-28T04:31:26;22.40;45.30
22827;DHT22;11580;52.562;13.418;2023-07-28T04:34:14;22.40;45.20
22827;DHT22;11580;52.562;13.418;2023-07-28T04:37:02;22.50;45.20
22827;DHT22;11580;52.562;13.418;2023-07-28T04:39:41;22.50;44.90
22827;DHT22;11580;52.562;13.418;2023-07-28T04:42:10;22.50;45.60
22827;DHT22;11580;52.562;13.418;2023-07-28T04:44:41;22.60;45.00
22827;DHT22;11580;52.562;13.418;2023-07-28T04:47:08;22.60;45.00
22827;DHT22;11580;52.562;13.418;2023-07-28T04:49:37;22.60;45.00
22827;DHT22;11580;52.562;13.418;2023-07-28T04:52:08;22.70;45.80
22827;DHT22;11580;52.562;13.418;2023-07-28T04:55:01;22.70;45.10
22827;DHT22;11580;52.562;13.418;2023-07-28T04:57:29;22.70;45.10
22827;DHT22;11580;52.562;13.418;2023-07-28T04:59:56;22.80;45.90
22827;DHT22;11580;52.562;13.418;2023-07-28T05:02:23;22.80;45.10
22827;DHT22;11580;52.562;13.418;2023-07-28T05:04:52;22.90;45.00
22827;DHT22;11580;52.562;13.418;2023-07-28T05:07:19;22.90;45.60
22827;DHT22;11580;52.562;13.418;2023-07-28T05:09:46;22.90;44.70
22827;DHT22;11580;52.562;13.418;2023-07-28T05:12:14;23.00;44.70
22827;DHT22;11580;52.562;13.418;2023-07-28T05:14:44;23.00;44.70
22827;DHT22;11580;52.562;13.418;2023-07-28T05:17:13;23.00;44.70
22827;DHT22;11580;52.562;13.418;2023-07-28T05:19:49;23.00;44.70
22827;DHT22;11580;52.562;13.418;2023-07-28T05:22:39;23.10;45.40
22827;DHT22;11580;52.562;13.418;2023-07-28T05:25:07;23.10;44.90
22827;DHT22;11580;52.562;13.418;2023-07-28T05:27:39;23.10;44.90
22827;DHT22;11580;52.562;13.418;2023-07-28T05:30:07;23.20;44.80
22827;DHT22;11580;52.562;13.418;2023-07-28T05:32:35;23.20;44.70
22827;DHT22;11580;52.562;13.418;2023-07-28T05:35:18;23.30;44.60
22827;DHT22;11580;52.562;13.418;2023-07-28T05:37:46;23.40;44.30
22827;DHT22;11580;52.562;13.418;2023-07-28T05:40:14;23.40;44.00
22827;DHT22;11580;52.562;13.418;2023-07-28T05:42:41;23.40;43.90
22827;DHT22;11580;52.562;13.418;2023-07-28T05:45:09;23.40;43.80
22827;DHT22;11580;52.562;13.418;2023-07-28T05:47:37;23.40;43.80
22827;DHT22;11580;52.562;13.418;2023-07-28T05:50:05;23.40;43.90
22827;DHT22;11580;52.562;13.418;2023-07-28T05:52:34;23.40;44.10
22827;DHT22;11580;52.562;13.418;2023-07-28T05:55:01;23.50;44.90
22827;DHT22;11580;52.562;13.418;2023-07-28T05:57:29;23.50;44.00
22827;DHT22;11580;52.562;13.418;2023-07-28T05:59:58;23.60;44.00
22827;DHT22;11580;52.562;13.418;2023-07-28T06:02:25;23.60;43.90
22827;DHT22;11580;52.562;13.418;2023-07-28T06:04:55;23.60;43.70
22827;DHT22;11580;52.562;13.418;2023-07-28T06:07:22;23.70;43.90
22827;DHT22;11580;52.562;13.418;2023-07-28T06:09:51;23.70;44.20
22827;DHT22;11580;52.562;13.418;2023-07-28T06:12:18;23.60;44.40
22827;DHT22;11580;52.562;13.418;2023-07-28T06:14:45;23.50;45.00
22827;DHT22;11580;52.562;13.418;2023-07-28T06:17:12;23.50;44.50
22827;DHT22;11580;52.562;13.418;2023-07-28T06:19:40;23.40;44.70
22827;DHT22;11580;52.562;13.418;2023-07-28T06:22:07;23.30;45.00
22827;DHT22;11580;52.562;13.418;2023-07-28T06:24:40;23.20;46.00
22827;DHT22;11580;52.562;13.418;2023-07-28T06:27:09;23.20;45.60
22827;DHT22;11580;52.562;13.418;2023-07-28T06:29:38;23.20;45.80
22827;DHT22;11580;52.562;13.418;2023-07-28T06:32:06;23.10;45.90
22827;DHT22;11580;52.562;13.418;2023-07-28T06:34:34;23.10;45.80
22827;DHT22;11580;52.562;13.418;2023-07-28T06:37:01;23.20;45.80
22827;DHT22;11580;52.562;13.418;2023-07-28T06:39:29;23.20;45.90
22827;DHT22;11580;52.562;13.418;2023-07-28T06:41:57;23.20;46.50
22827;DHT22;11580;52.562;13.418;2023-07-28T06:44:28;23.20;45.80
22827;DHT22;11580;52.562;13.418;2023-07-28T06:46:55;23.30;45.60
22827;DHT22;11580;52.562;13.418;2023-07-28T06:49:22;23.30;46.30
22827;DHT22;11580;52.562;13.418;2023-07-28T06:51:49;23.40;45.70
22827;DHT22;11580;52.562;13.418;2023-07-28T06:54:17;23.40;45.70
22827;DHT22;11580;52.562;13.418;2023-07-28T06:56:45;23.50;45.60
22827;DHT22;11580;52.562;13.418;2023-07-28T06:59:12;23.60;45.30
22827;DHT22;11580;52.562;13.418;2023-07-28T07:01:40;23.70;45.20
22827;DHT22;11580;52.562;13.418;2023-07-28T07:04:08;23.70;45.00
22827;DHT22;11580;52.562;13.418;2023-07-28T07:06:35;23.80;46.20
22827;DHT22;11580;52.562;13.418;2023-07-28T07:09:02;24.00;45.90
22827;DHT22;11580;52.562;13.418;2023-07-28T07:11:30;24.20;46.20
22827;DHT22;11580;52.562;13.418;2023-07-28T07:13:58;24.40;45.80
22827;DHT22;11580;52.562;13.418;2023-07-28T07:16:25;24.60;45.10
22827;DHT22;11580;52.562;13.418;2023-07-28T07:18:54;24.80;44.60
22827;DHT22;11580;52.562;13.418;2023-07-28T07:21:21;25.00;44.00
22827;DHT22;11580;52.562;13.418;2023-07-28T07:23:48;25.10;43.50
22827;DHT22;11580;52.562;13.418;2023-07-28T07:26:24;25.10;42.90
22827;DHT22;11580;52.562;13.418;2023-07-28T07:28:52;25.10;43.20
22827;DHT22;11580;52.562;13.418;2023-07-28T07:31:19;25.10;42.70
22827;DHT22;11580;52.562;13.418;2023-07-28T07:33:46;25.10;41.80
22827;DHT22;11580;52.562;13.418;2023-07-28T07:36:15;25.00;42.10
22827;DHT22;11580;52.562;13.418;2023-07-28T07:38:45;25.00;43.20
22827;DHT22;11580;52.562;13.418;2023-07-28T07:41:13;25.00;43.30
22827;DHT22;11580;52.562;13.418;2023-07-28T07:43:41;25.10;44.10
22827;DHT22;11580;52.562;13.418;2023-07-28T07:46:09;25.30;43.50
22827;DHT22;11580;52.562;13.418;2023-07-28T07:48:36;25.40;43.30
22827;DHT22;11580;52.562;13.418;2023-07-28T07:51:03;25.60;43.00
22827;DHT22;11580;52.562;13.418;2023-07-28T07:53:32;25.80;43.00
22827;DHT22;11580;52.562;13.418;2023-07-28T07:55:59;26.10;42.20
22827;DHT22;11580;52.562;13.418;2023-07-28T07:58:26;26.30;41.80
22827;DHT22;11580;52.562;13.418;2023-07-28T08:00:53;26.50;41.90
22827;DHT22;11580;52.562;13.418;2023-07-28T08:03:21;26.60;41.50
22827;DHT22;11580;52.562;13.418;2023-07-28T08:05:50;26.90;41.20
22827;DHT22;11580;52.562;13.418;2023-07-28T08:08:18;27.00;40.60
22827;DHT22;11580;52.562;13.418;2023-07-28T08:10:47;27.20;40.30
22827;DHT22;11580;52.562;13.418;2023-07-28T08:13:14;27.40;39.50
22827;DHT22;11580;52.562;13.418;2023-07-28T08:15:43;27.50;39.00
22827;DHT22;11580;52.562;13.418;2023-07-28T08:18:11;27.70;38.30
22827;DHT22;11580;52.562;13.418;2023-07-28T08:20:39;27.70;37.80
22827;DHT22;11580;52.562;13.418;2023-07-28T08:23:06;27.70;37.10
22827;DHT22;11580;52.562;13.418;2023-07-28T08:25:33;27.70;37.10
22827;DHT22;11580;52.562;13.418;2023-07-28T08:28:02;27.70;37.20
22827;DHT22;11580;52.562;13.418;2023-07-28T08:30:29;27.70;36.90
22827;DHT22;11580;52.562;13.418;2023-07-28T08:32:57;27.80;36.40
22827;DHT22;11580;52.562;13.418;2023-07-28T08:35:24;27.80;36.40
22827;DHT22;11580;52.562;13.418;2023-07-28T08:37:51;27.90;36.10
22827;DHT22;11580;52.562;13.418;2023-07-28T08:40:19;27.80;38.50
22827;DHT22;11580;52.562;13.418;2023-07-28T08:42:46;27.70;38.60
22827;DHT22;11580;52.562;13.418;2023-07-28T08:45:17;27.60;38.40
22827;DHT22;11580;52.562;13.418;2023-07-28T08:47:46;27.30;38.40
22827;DHT22;11580;52.562;13.418;2023-07-28T08:50:13;27.20;38.60
22827;DHT22;11580;52.562;13.418;2023-07-28T08:52:40;27.10;38.80
22827;DHT22;11580;52.562;13.418;2023-07-28T08:55:08;27.10;38.70
22827;DHT22;11580;52.562;13.418;2023-07-28T08:57:36;27.10;39.10
22827;DHT22;11580;52.562;13.418;2023-07-28T09:00:08;27.20;39.10
22827;DHT22;11580;52.562;13.418;2023-07-28T09:02:38;27.30;38.20
22827;DHT22;11580;52.562;13.418;2023-07-28T09:05:06;27.40;37.90
22827;DHT22;11580;52.562;13.418;2023-07-28T09:07:34;27.40;38.10
22827;DHT22;11580;52.562;13.418;2023-07-28T09:10:02;27.40;37.40
22827;DHT22;11580;52.562;13.418;2023-07-28T09:12:31;27.30;36.50
22827;DHT22;11580;52.562;13.418;2023-07-28T09:14:59;27.30;36.30
22827;DHT22;11580;52.562;13.418;2023-07-28T09:17:26;27.20;37.00
22827;DHT22;11580;52.562;13.418;2023-07-28T09:19:59;27.20;36.40
22827;DHT22;11580;52.562;13.418;2023-07-28T09:22:29;27.10;37.10
22827;DHT22;11580;52.562;13.418;2023-07-28T09:24:57;27.10;36.30
22827;DHT22;11580;52.562;13.418;2023-07-28T09:27:25;27.00;36.80
22827;DHT22;11580;52.562;13.418;2023-07-28T09:29:55;27.00;37.20
22827;DHT22;11580;52.562;13.418;2023-07-28T09:32:30;27.00;37.50
22827;DHT22;11580;52.562;13.418;2023-07-28T09:35:10;27.10;37.00
22827;DHT22;11580;52.562;13.418;2023-07-28T09:37:40;27.20;37.30
22827;DHT22;11580;52.562;13.418;2023-07-28T09:40:10;27.30;38.30
22827;DHT22;11580;52.562;13.418;2023-07-28T09:42:38;27.40;37.30
22827;DHT22;11580;52.562;13.418;2023-07-28T09:45:06;27.40;38.10
22827;DHT22;11580;52.562;13.418;2023-07-28T09:47:35;27.40;37.10
22827;DHT22;11580;52.562;13.418;2023-07-28T09:50:05;27.50;37.30
22827;DHT22;11580;52.562;13.418;2023-07-28T09:52:38;27.50;37.10
22827;DHT22;11580;52.562;13.418;2023-07-28T09:55:10;27.70;36.80
22827;DHT22;11580;52.562;13.418;2023-07-28T09:57:46;27.80;37.10
22827;DHT22;11580;52.562;13.418;2023-07-28T10:00:18;28.00;36.90
22827;DHT22;11580;52.562;13.418;2023-07-28T10:02:48;28.20;36.00
22827;DHT22;11580;52.562;13.418;2023-07-28T10:05:16;28.30;36.10
22827;DHT22;11580;52.562;13.418;2023-07-28T10:07:47;28.40;35.80
22827;DHT22;11580;52.562;13.418;2023-07-28T10:10:15;28.60;35.10
22827;DHT22;11580;52.562;13.418;2023-07-28T10:12:47;28.80;35.20
22827;DHT22;11580;52.562;13.418;2023-07-28T10:15:16;28.90;35.20
22827;DHT22;11580;52.562;13.418;2023-07-28T10:17:46;29.10;34.60
22827;DHT22;11580;52.562;13.418;2023-07-28T10:20:28;29.20;34.20
22827;DHT22;11580;52.562;13.418;2023-07-28T10:23:11;29.30;33.40
22827;DHT22;11580;52.562;13.418;2023-07-28T10:25:40;29.40;33.20
22827;DHT22;11580;52.562;13.418;2023-07-28T10:28:25;29.50;33.80
22827;DHT22;11580;52.562;13.418;2023-07-28T10:30:55;29.70;33.30
22827;DHT22;11580;52.562;13.418;2023-07-28T10:33:32;29.80;33.20
22827;DHT22;11580;52.562;13.418;2023-07-28T10:36:12;29.90;31.90
22827;DHT22;11580;52.562;13.418;2023-07-28T10:38:43;30.00;31.40
22827;DHT22;11580;52.562;13.418;2023-07-28T10:41:13;30.00;31.40
22827;DHT22;11580;52.562;13.418;2023-07-28T10:43:43;29.90;31.40
22827;DHT22;11580;52.562;13.418;2023-07-28T10:46:15;29.80;31.60
22827;DHT22;11580;52.562;13.418;2023-07-28T10:48:45;29.60;31.90
22827;DHT22;11580;52.562;13.418;2023-07-28T10:51:20;29.40;31.70
22827;DHT22;11580;52.562;13.418;2023-07-28T10:53:51;29.10;32.40
22827;DHT22;11580;52.562;13.418;2023-07-28T10:56:21;28.90;33.00
22827;DHT22;11580;52.562;13.418;2023-07-28T10:58:56;28.60;33.60
22827;DHT22;11580;52.562;13.418;2023-07-28T11:01:30;28.30;35.00
22827;DHT22;11580;52.562;13.418;2023-07-28T11:04:06;28.00;34.20
22827;DHT22;11580;52.562;13.418;2023-07-28T11:06:35;27.80;34.30
22827;DHT22;11580;52.562;13.418;2023-07-28T11:09:07;27.50;34.50
22827;DHT22;11580;52.562;13.418;2023-07-28T11:11:35;27.40;35.10
22827;DHT22;11580;52.562;13.418;2023-07-28T11:14:05;27.30;36.00
22827;DHT22;11580;52.562;13.418;2023-07-28T11:16:33;27.20;36.30
22827;DHT22;11580;52.562;13.418;2023-07-28T11:19:02;27.20;36.30
22827;DHT22;11580;52.562;13.418;2023-07-28T11:21:30;27.20;37.10
22827;DHT22;11580;52.562;13.418;2023-07-28T11:23:57;27.20;36.00
22827;DHT22;11580;52.562;13.418;2023-07-28T11:26:26;27.20;35.90
22827;DHT22;11580;52.562;13.418;2023-07-28T11:28:55;27.20;35.40
22827;DHT22;11580;52.562;13.418;2023-07-28T11:31:23;27.10;35.50
22827;DHT22;11580;52.562;13.418;2023-07-28T11:33:52;27.10;35.50
22827;DHT22;11580;52.562;13.418;2023-07-28T11:36:23;27.10;35.50
22827;DHT22;11580;52.562;13.418;2023-07-28T11:38:53;27.10;35.30
22827;DHT22;11580;52.562;13.418;2023-07-28T11:41:22;27.10;35.70
22827;DHT22;11580;52.562;13.418;2023-07-28T11:43:51;27.10;36.00
22827;DHT22;11580;52.562;13.418;2023-07-28T11:46:35;27.20;35.70
22827;DHT22;11580;52.562;13.418;2023-07-28T11:49:13;27.30;35.70
22827;DHT22;11580;52.562;13.418;2023-07-28T11:51:43;27.40;35.60
22827;DHT22;11580;52.562;13.418;2023-07-28T11:54:15;27.50;35.60
22827;DHT22;11580;52.562;13.418;2023-07-28T11:56:43;27.60;35.70
22827;DHT22;11580;52.562;13.418;2023-07-28T11:59:15;27.70;35.00
22827;DHT22;11580;52.562;13.418;2023-07-28T12:01:56;27.90;33.80
22827;DHT22;11580;52.562;13.418;2023-07-28T12:04:26;28.00;32.90
22827;DHT22;11580;52.562;13.418;2023-07-28T12:07:07;28.00;32.70
22827;DHT22;11580;52.562;13.418;2023-07-28T12:09:50;28.00;32.20
22827;DHT22;11580;52.562;13.418;2023-07-28T12:12:25;27.90;31.90
22827;DHT22;11580;52.562;13.418;2023-07-28T12:14:56;27.90;32.30
22827;DHT22;11580;52.562;13.418;2023-07-28T12:17:28;27.80;32.30
22827;DHT22;11580;52.562;13.418;2023-07-28T12:19:58;27.60;32.40
22827;DHT22;11580;52.562;13.418;2023-07-28T12:22:27;27.50;32.40
22827;DHT22;11580;52.562;13.418;2023-07-28T12:24:55;27.40;32.80
22827;DHT22;11580;52.562;13.418;2023-07-28T12:27:22;27.20;33.10
22827;DHT22;11580;52.562;13.418;2023-07-28T12:29:50;27.00;33.10
22827;DHT22;11580;52.562;13.418;2023-07-28T12:32:19;26.90;33.50
22827;DHT22;11580;52.562;13.418;2023-07-28T12:34:48;26.80;33.80
22827;DHT22;11580;52.562;13.418;2023-07-28T12:37:16;26.80;34.00
22827;DHT22;11580;52.562;13.418;2023-07-28T12:39:44;26.70;34.10
22827;DHT22;11580;52.562;13.418;2023-07-28T12:42:11;26.70;34.00
22827;DHT22;11580;52.562;13.418;2023-07-28T12:44:39;26.70;34.90
22827;DHT22;11580;52.562;13.418;2023-07-28T12:47:07;26.70;34.10
22827;DHT22;11580;52.562;13.418;2023-07-28T12:49:36;26.60;34.90
22827;DHT22;11580;52.562;13.418;2023-07-28T12:52:05;26.60;34.30
22827;DHT22;11580;52.562;13.418;2023-07-28T12:54:34;26.60;34.20
22827;DHT22;11580;52.562;13.418;2023-07-28T12:57:02;26.60;34.60
22827;DHT22;11580;52.562;13.418;2023-07-28T12:59:29;26.70;34.90
22827;DHT22;11580;52.562;13.418;2023-07-28T13:01:56;26.70;34.70
22827;DHT22;11580;52.562;13.418;2023-07-28T13:04:24;26.80;34.60
22827;DHT22;11580;52.562;13.418;2023-07-28T13:06:52;26.90;34.40
22827;DHT22;11580;52.562;13.418;2023-07-28T13:09:19;27.10;34.40
22827;DHT22;11580;52.562;13.418;2023-07-28T13:11:46;27.20;34.30
22827;DHT22;11580;52.562;13.418;2023-07-28T13:14:13;27.40;34.40
22827;DHT22;11580;52.562;13.418;2023-07-28T13:16:41;27.50;33.90
22827;DHT22;11580;52.562;13.418;2023-07-28T13:19:10;27.60;33.60
22827;DHT22;11580;52.562;13.418;2023-07-28T13:21:37;27.80;33.20
22827;DHT22;11580;52.562;13.418;2023-07-28T13:24:06;27.90;32.80
22827;DHT22;11580;52.562;13.418;2023-07-28T13:26:33;28.00;32.50
22827;DHT22;11580;52.562;13.418;2023-07-28T13:29:00;28.20;32.20
22827;DHT22;11580;52.562;13.418;2023-07-28T13:31:28;28.30;32.20
22827;DHT22;11580;52.562;13.418;2023-07-28T13:33:55;28.40;31.80
22827;DHT22;11580;52.562;13.418;2023-07-28T13:36:22;28.50;31.60
22827;DHT22;11580;52.562;13.418;2023-07-28T13:38:49;28.60;31.00
22827;DHT22;11580;52.562;13.418;2023-07-28T13:41:18;28.70;31.00
22827;DHT22;11580;52.562;13.418;2023-07-28T13:43:45;28.80;30.80
22827;DHT22;11580;52.562;13.418;2023-07-28T13:46:12;28.80;30.80
22827;DHT22;11580;52.562;13.418;2023-07-28T13:48:39;28.90;30.70
22827;DHT22;11580;52.562;13.418;2023-07-28T13:51:06;29.00;30.30
22827;DHT22;11580;52.562;13.418;2023-07-28T13:53:33;29.00;30.20
22827;DHT22;11580;52.562;13.418;2023-07-28T13:56:01;29.00;30.00
22827;DHT22;11580;52.562;13.418;2023-07-28T13:58:29;29.00;30.00
22827;DHT22;11580;52.562;13.418;2023-07-28T14:00:56;29.00;29.90
22827;DHT22;11580;52.562;13.418;2023-07-28T14:03:23;29.00;29.80
22827;DHT22;11580;52.562;13.418;2023-07-28T14:05:51;29.00;29.90
22827;DHT22;11580;52.562;13.418;2023-07-28T14:08:18;29.00;30.20
22827;DHT22;11580;52.562;13.418;2023-07-28T14:10:45;29.00;29.80
22827;DHT22;11580;52.562;13.418;2023-07-28T14:13:13;29.10;29.80
22827;DHT22;11580;52.562;13.418;2023-07-28T14:15:41;29.10;29.60
22827;DHT22;11580;52.562;13.418;2023-07-28T14:18:08;29.10;29.30
22827;DHT22;11580;52.562;13.418;2023-07-28T14:20:35;29.10;29.20
22827;DHT22;11580;52.562;13.418;2023-07-28T14:23:20;29.10;29.30
22827;DHT22;11580;52.562;13.418;2023-07-28T14:25:49;29.20;29.50
22827;DHT22;11580;52.562;13.418;2023-07-28T14:28:17;29.30;30.20
22827;DHT22;11580;52.562;13.418;2023-07-28T14:30:45;29.30;30.00
22827;DHT22;11580;52.562;13.418;2023-07-28T14:33:13;29.40;29.50
22827;DHT22;11580;52.562;13.418;2023-07-28T14:35:41;29.40;29.60
22827;DHT22;11580;52.562;13.418;2023-07-28T14:38:09;29.50;29.70
22827;DHT22;11580;52.562;13.418;2023-07-28T14:40:37;29.70;29.70
22827;DHT22;11580;52.562;13.418;2023-07-28T14:43:05;29.80;29.60
22827;DHT22;11580;52.562;13.418;2023-07-28T14:45:33;29.90;29.40
22827;DHT22;11580;52.562;13.418;2023-07-28T14:48:02;30.00;29.10
22827;DHT22;11580;52.562;13.418;2023-07-28T14:50:29;30.10;28.60
22827;DHT22;11580;52.562;13.418;2023-07-28T14:52:58;30.10;28.40
22827;DHT22;11580;52.562;13.418;2023-07-28T14:55:26;30.10;28.30
22827;DHT22;11580;52.562;13.418;2023-07-28T14:57:53;30.10;28.50
22827;DHT22;11580;52.562;13.418;2023-07-28T15:00:20;30.10;28.60
22827;DHT22;11580;52.562;13.418;2023-07-28T15:02:47;30.10;28.30
22827;DHT22;11580;52.562;13.418;2023-07-28T15:05:16;30.10;28.10
22827;DHT22;11580;52.562;13.418;2023-07-28T15:07:43;30.00;28.10
22827;DHT22;11580;52.562;13.418;2023-07-28T15:10:10;30.00;28.10
22827;DHT22;11580;52.562;13.418;2023-07-28T15:12:37;29.90;28.10
22827;DHT22;11580;52.562;13.418;2023-07-28T15:15:05;29.90;28.10
22827;DHT22;11580;52.562;13.418;2023-07-28T15:17:33;29.80;28.10
22827;DHT22;11580;52.562;13.418;2023-07-28T15:20:00;29.80;28.00
22827;DHT22;11580;52.562;13.418;2023-07-28T15:22:29;29.80;28.00
22827;DHT22;11580;52.562;13.418;2023-07-28T15:24:58;29.70;27.70
22827;DHT22;11580;52.562;13.418;2023-07-28T15:27:25;29.70;27.90